Nakusp, Canada
Current Conditions -  °F | °C
As of 8:08 AM on Friday 28 Nov 2014 (Local Time) from CYLW Reporting Station
Light Rain Light Rain  
Wind Chill: -7°   Ceiling: 4800
Heat Index:   Visibility: 9mi
Dew Point: -2°   Wind: 32mph
Humidity: 81%   Direction: 340°NNW
Pressure: 29.37"   Gusts: 41mph
Location:  50.24°N, 117.8°W
Report Text: CYLW 281608Z AUTO 34028G36KT 9SM -RA UP SCT029 SCT034 OVC048 01/M02 A2937 RMK SLP962
Loading
Personal Weather Stations






























Interactive Weather Map New forecast layout! Learn more

10-Day Weather Forecast

Advertisements
Track Severe Weather on mobile